createdAt,value
2022-08-31T00:03:20.965Z,13.42
2022-08-31T00:11:21.353Z,13.31
2022-08-31T00:14:20.401Z,13.25
2022-08-31T00:17:49.634Z,13.18
2022-08-31T00:24:27.378Z,13.18
2022-08-31T00:27:22.810Z,13.12
2022-08-31T00:30:18.816Z,13.07
2022-08-31T00:33:11.606Z,13.09
2022-08-31T00:36:45.347Z,13.08
2022-08-31T00:40:22.950Z,12.97
2022-08-31T00:44:18.533Z,13.05
2022-08-31T00:52:48.100Z,13.04
2022-08-31T00:56:38.774Z,12.88
2022-08-31T01:04:42.470Z,12.94
2022-08-31T01:15:20.502Z,12.95
2022-08-31T01:18:07.624Z,13.03
2022-08-31T01:21:14.577Z,13.06
2022-08-31T01:26:56.082Z,13.13
2022-08-31T01:29:51.843Z,13.11
2022-08-31T01:33:12.044Z,13.11
2022-08-31T01:36:11.163Z,13.07
2022-08-31T01:43:02.630Z,13.12
2022-08-31T01:45:57.261Z,13.10
2022-08-31T01:48:49.731Z,13.06
2022-08-31T01:51:35.344Z,13.13
2022-08-31T01:54:25.217Z,13.09
2022-08-31T01:57:10.248Z,13.05
2022-08-31T02:00:52.211Z,13.09
2022-08-31T02:03:39.695Z,13.09
2022-08-31T02:06:33.872Z,13.06
2022-08-31T02:09:13.509Z,13.04
2022-08-31T02:12:29.831Z,13.02
2022-08-31T02:14:37.694Z,12.98
2022-08-31T02:17:18.793Z,13.02
2022-08-31T02:20:21.175Z,12.96
2022-08-31T02:25:56.974Z,12.80
2022-08-31T02:31:28.156Z,12.72
2022-08-31T02:34:05.785Z,12.71
2022-08-31T02:36:40.522Z,12.65
2022-08-31T02:39:43.521Z,12.65
2022-08-31T02:46:06.490Z,12.54
2022-08-31T02:49:35.496Z,12.54
2022-08-31T02:52:23.951Z,12.49
2022-08-31T02:54:56.254Z,12.52
2022-08-31T02:57:26.368Z,12.48
2022-08-31T03:00:05.996Z,12.52
2022-08-31T03:02:35.892Z,12.44
2022-08-31T03:05:13.257Z,12.44
2022-08-31T03:07:45.640Z,12.38
2022-08-31T03:10:24.224Z,12.33
2022-08-31T03:13:01.760Z,12.37
2022-08-31T03:15:30.215Z,12.31
2022-08-31T03:18:06.640Z,12.22
2022-08-31T03:20:37.967Z,12.17
2022-08-31T03:23:08.788Z,12.21
2022-08-31T03:25:38.123Z,12.21
2022-08-31T03:28:07.055Z,12.18
2022-08-31T03:30:41.426Z,12.18
2022-08-31T03:33:11.377Z,12.15
2022-08-31T03:35:43.808Z,12.11
2022-08-31T03:38:16.115Z,12.11
2022-08-31T03:40:44.467Z,12.11
2022-08-31T03:43:12.369Z,12.04
2022-08-31T03:45:41.980Z,11.96
2022-08-31T03:48:12.780Z,11.97
2022-08-31T03:50:43.261Z,11.97
2022-08-31T03:53:20.368Z,11.97
2022-08-31T03:55:50.228Z,11.92
2022-08-31T03:58:17.144Z,11.95
2022-08-31T04:00:45.093Z,11.93
2022-08-31T04:03:29.548Z,12.01
2022-08-31T04:06:19.425Z,11.97
2022-08-31T04:09:12.731Z,11.98
2022-08-31T04:11:58.427Z,12.04
2022-08-31T04:14:57.451Z,12.30
2022-08-31T04:17:57.219Z,12.35
2022-08-31T04:20:43.234Z,12.40
2022-08-31T04:23:10.126Z,12.40
2022-08-31T04:25:42.061Z,12.48
2022-08-31T04:28:10.330Z,12.49
2022-08-31T04:30:38.850Z,12.48
2022-08-31T04:33:05.701Z,12.44
2022-08-31T04:35:32.850Z,12.43
2022-08-31T04:37:59.668Z,12.40
2022-08-31T04:40:27.499Z,12.32
2022-08-31T04:42:55.554Z,12.21
2022-08-31T04:45:27.183Z,12.18
2022-08-31T04:47:56.476Z,12.13
2022-08-31T04:50:23.567Z,12.15
2022-08-31T04:53:07.813Z,12.14
2022-08-31T04:55:40.190Z,12.41
2022-08-31T04:58:07.608Z,12.52
2022-08-31T05:00:35.918Z,12.59
2022-08-31T05:03:23.229Z,12.63
2022-08-31T05:05:53.751Z,12.57
2022-08-31T05:08:20.694Z,12.62
2022-08-31T05:10:48.712Z,12.57
2022-08-31T05:13:15.707Z,12.63
2022-08-31T05:15:44.195Z,12.58
2022-08-31T05:18:14.356Z,12.67
2022-08-31T05:20:48.445Z,12.72
2022-08-31T05:23:15.433Z,12.69
2022-08-31T05:25:43.800Z,12.75
2022-08-31T05:28:11.011Z,12.84
2022-08-31T05:30:38.117Z,12.97
2022-08-31T05:33:08.576Z,12.96
2022-08-31T05:35:37.734Z,13.06
2022-08-31T05:38:04.617Z,13.09
2022-08-31T05:40:31.428Z,13.12
2022-08-31T05:42:59.670Z,13.20
2022-08-31T05:45:26.963Z,13.21
2022-08-31T05:47:53.928Z,13.26
2022-08-31T05:50:20.805Z,13.30
2022-08-31T05:52:47.737Z,13.31
2022-08-31T05:55:14.662Z,13.40
2022-08-31T05:57:43.904Z,13.45
2022-08-31T06:00:11.173Z,13.52
2022-08-31T06:02:43.062Z,13.54
2022-08-31T06:05:12.820Z,13.63
2022-08-31T06:07:40.092Z,13.78
2022-08-31T06:10:11.493Z,13.87
2022-08-31T06:12:39.903Z,13.95
2022-08-31T06:15:07.713Z,14.10
2022-08-31T06:17:35.559Z,14.15
2022-08-31T06:20:05.396Z,14.16
2022-08-31T06:22:36.877Z,14.21
2022-08-31T06:25:08.409Z,14.33
2022-08-31T06:27:38.931Z,14.40
2022-08-31T06:30:07.981Z,14.49
2022-08-31T06:32:35.145Z,14.61
2022-08-31T06:35:04.095Z,14.75
2022-08-31T06:37:49.332Z,14.83
2022-08-31T06:40:35.039Z,14.90
2022-08-31T06:43:26.476Z,15.00
2022-08-31T06:45:58.121Z,15.11
2022-08-31T06:48:44.067Z,15.21
2022-08-31T06:51:13.238Z,15.27
2022-08-31T06:53:42.551Z,15.38
2022-08-31T06:56:28.562Z,15.40
2022-08-31T06:59:18.333Z,15.43
2022-08-31T07:02:08.288Z,15.45
2022-08-31T07:24:35.464Z,15.28
2022-08-31T07:27:10.225Z,15.34
2022-08-31T07:29:46.127Z,15.37
2022-08-31T07:32:16.143Z,15.44
2022-08-31T07:34:44.178Z,15.53
2022-08-31T07:37:38.146Z,15.55
2022-08-31T07:40:25.899Z,15.62
2022-08-31T07:42:52.941Z,15.78
2022-08-31T07:45:27.944Z,15.82
2022-08-31T07:47:59.979Z,15.92
2022-08-31T07:50:37.489Z,16.06
2022-08-31T07:53:27.517Z,16.21
2022-08-31T07:56:12.112Z,16.25
2022-08-31T07:58:42.837Z,16.25
2022-08-31T08:01:11.586Z,16.29
2022-08-31T08:03:41.089Z,16.34
2022-08-31T08:06:32.425Z,16.47
2022-08-31T08:09:22.359Z,16.55
2022-08-31T08:12:08.754Z,16.61
2022-08-31T08:14:59.276Z,16.71
2022-08-31T08:17:37.416Z,16.84
2022-08-31T08:20:13.340Z,16.99
2022-08-31T08:22:54.365Z,16.96
2022-08-31T08:25:34.834Z,16.97
2022-08-31T08:28:39.201Z,16.95
2022-08-31T08:31:16.769Z,16.82
2022-08-31T08:33:43.910Z,16.77
2022-08-31T08:36:11.611Z,16.68
2022-08-31T08:38:41.198Z,16.66
2022-08-31T08:41:14.511Z,16.73
2022-08-31T08:43:50.027Z,16.81
2022-08-31T08:46:34.833Z,16.78
2022-08-31T08:49:22.874Z,16.91
2022-08-31T08:51:56.844Z,16.89
2022-08-31T08:54:31.671Z,16.79
2022-08-31T08:57:01.393Z,16.73
2022-08-31T08:59:29.087Z,16.89
2022-08-31T09:02:02.268Z,16.93
2022-08-31T09:04:45.612Z,16.97
2022-08-31T09:07:44.707Z,17.00
2022-08-31T09:10:30.383Z,17.18
2022-08-31T09:13:13.652Z,17.29
2022-08-31T09:15:47.370Z,17.48
2022-08-31T09:18:53.220Z,17.51
2022-08-31T09:21:25.597Z,17.72
2022-08-31T09:24:06.906Z,17.91
2022-08-31T09:27:19.668Z,18.04
2022-08-31T09:30:02.184Z,18.04
2022-08-31T09:32:32.552Z,18.16
2022-08-31T09:35:01.899Z,18.17
2022-08-31T09:37:33.836Z,18.27
2022-08-31T09:40:32.230Z,18.46
2022-08-31T09:43:25.387Z,18.45
2022-08-31T09:46:05.123Z,18.37
2022-08-31T09:48:48.541Z,18.38
2022-08-31T09:51:29.719Z,18.35
2022-08-31T09:54:35.314Z,18.48
2022-08-31T09:57:05.392Z,18.40
2022-08-31T09:59:38.568Z,18.12
2022-08-31T10:02:26.280Z,18.03
2022-08-31T10:04:56.100Z,18.13
2022-08-31T10:07:32.009Z,18.21
2022-08-31T10:10:08.343Z,18.23
2022-08-31T10:12:58.319Z,18.16
2022-08-31T10:15:31.113Z,18.16
2022-08-31T10:18:15.771Z,18.13
2022-08-31T10:21:07.833Z,18.30
2022-08-31T10:23:54.491Z,18.41
2022-08-31T10:26:37.506Z,18.50
2022-08-31T10:29:20.754Z,18.50
2022-08-31T10:31:52.373Z,18.55
2022-08-31T10:34:40.197Z,18.66
2022-08-31T10:37:12.791Z,18.75
2022-08-31T10:39:52.910Z,19.05
2022-08-31T10:42:42.924Z,19.11
2022-08-31T10:45:16.380Z,19.15
2022-08-31T10:47:49.134Z,19.24
2022-08-31T10:50:23.422Z,19.29
2022-08-31T10:53:02.483Z,19.43
2022-08-31T10:55:50.862Z,19.43
2022-08-31T10:58:35.518Z,19.54
2022-08-31T11:01:23.437Z,19.68
2022-08-31T11:04:09.250Z,19.74
2022-08-31T11:06:47.283Z,19.62
2022-08-31T11:09:20.457Z,19.47
2022-08-31T11:11:58.179Z,19.32
2022-08-31T11:14:44.096Z,19.26
2022-08-31T11:17:24.890Z,19.14
2022-08-31T11:20:25.336Z,19.08
2022-08-31T11:23:29.087Z,19.40
2022-08-31T11:26:06.347Z,19.81
2022-08-31T11:28:37.506Z,19.69
2022-08-31T11:31:20.455Z,19.59
2022-08-31T11:34:12.186Z,19.48
2022-08-31T11:36:58.461Z,19.53
2022-08-31T11:39:46.177Z,19.85
2022-08-31T11:42:18.841Z,20.21
2022-08-31T11:44:47.442Z,20.62
2022-08-31T11:47:29.452Z,20.97
2022-08-31T11:49:59.399Z,21.19
2022-08-31T11:52:43.396Z,20.96
2022-08-31T11:55:23.010Z,21.22
2022-08-31T11:58:10.084Z,21.33
2022-08-31T12:00:54.152Z,21.53
2022-08-31T12:03:43.281Z,21.65
2022-08-31T12:06:28.519Z,21.74
2022-08-31T12:09:15.107Z,21.55
2022-08-31T12:11:47.796Z,21.40
2022-08-31T12:14:40.828Z,21.59
2022-08-31T12:17:24.840Z,21.74
2022-08-31T12:20:02.676Z,21.92
2022-08-31T12:23:16.737Z,21.76
2022-08-31T12:26:09.198Z,21.68
2022-08-31T12:29:14.256Z,21.44
2022-08-31T12:31:41.961Z,21.35
2022-08-31T12:34:18.689Z,21.18
2022-08-31T12:36:45.543Z,21.09
2022-08-31T12:39:23.477Z,21.18
2022-08-31T12:42:03.842Z,21.32
2022-08-31T12:44:37.329Z,21.07
2022-08-31T12:47:06.395Z,20.77
2022-08-31T12:50:08.461Z,20.54
2022-08-31T12:52:44.394Z,20.27
2022-08-31T12:55:33.766Z,20.17
2022-08-31T12:58:42.016Z,20.52
2022-08-31T13:01:12.426Z,21.07
2022-08-31T13:03:46.846Z,21.45
2022-08-31T13:06:30.445Z,21.52
2022-08-31T13:08:59.165Z,21.65
2022-08-31T13:11:35.179Z,21.71
2022-08-31T13:14:18.309Z,21.56
2022-08-31T13:16:54.162Z,21.41
2022-08-31T13:19:26.052Z,21.14
2022-08-31T13:21:55.726Z,20.99
2022-08-31T13:24:29.063Z,20.85
2022-08-31T13:27:06.365Z,20.88
2022-08-31T13:29:41.255Z,21.21
2022-08-31T13:32:08.880Z,21.72
2022-08-31T13:34:39.410Z,22.23
2022-08-31T13:37:06.186Z,22.49
2022-08-31T13:39:39.206Z,22.61
2022-08-31T13:42:32.294Z,22.66
2022-08-31T13:45:09.898Z,23.12
2022-08-31T13:47:41.722Z,23.07
2022-08-31T13:50:27.161Z,22.98
2022-08-31T13:53:24.898Z,23.12
2022-08-31T13:55:44.846Z,23.59
2022-08-31T13:58:28.011Z,23.75
2022-08-31T14:01:24.610Z,23.65
2022-08-31T14:03:58.283Z,23.69
2022-08-31T14:06:38.958Z,23.93
2022-08-31T14:09:17.013Z,24.26
2022-08-31T14:11:53.517Z,23.96
2022-08-31T14:14:30.061Z,23.74
2022-08-31T14:16:58.431Z,23.38
2022-08-31T14:19:34.148Z,23.41
2022-08-31T14:22:33.162Z,23.58
2022-08-31T14:25:01.004Z,23.89
2022-08-31T14:27:29.424Z,24.06
2022-08-31T14:29:57.726Z,23.79
2022-08-31T14:32:25.826Z,24.14
2022-08-31T14:34:53.496Z,24.28
2022-08-31T14:37:20.332Z,24.32
2022-08-31T14:39:50.692Z,24.27
2022-08-31T14:42:20.905Z,24.30
2022-08-31T14:44:53.837Z,23.76
2022-08-31T14:47:27.834Z,23.57
2022-08-31T14:49:58.923Z,23.55
2022-08-31T14:52:28.074Z,23.95
2022-08-31T14:54:54.755Z,24.46
2022-08-31T14:57:25.465Z,24.81
2022-08-31T14:59:56.988Z,24.79
2022-08-31T15:02:24.930Z,24.69
2022-08-31T15:04:51.860Z,24.34
2022-08-31T15:07:19.850Z,23.40
2022-08-31T15:09:47.923Z,22.88
2022-08-31T15:12:17.473Z,22.48
2022-08-31T15:14:47.314Z,22.18
2022-08-31T15:17:19.067Z,21.91
2022-08-31T15:19:48.176Z,21.98
2022-08-31T15:22:16.007Z,22.04
2022-08-31T15:24:45.019Z,22.16
2022-08-31T15:27:14.504Z,22.54
2022-08-31T15:29:42.721Z,22.97
2022-08-31T15:32:16.742Z,23.20
2022-08-31T15:34:50.097Z,23.23
2022-08-31T15:37:17.362Z,22.89
2022-08-31T15:39:49.015Z,22.24
2022-08-31T15:42:20.775Z,21.83
2022-08-31T15:44:58.360Z,21.51
2022-08-31T15:47:46.453Z,21.35
2022-08-31T15:50:13.449Z,21.67
2022-08-31T15:52:51.255Z,21.52
2022-08-31T15:55:23.675Z,21.62
2022-08-31T15:57:54.412Z,21.61
2022-08-31T16:00:27.262Z,21.12
2022-08-31T16:02:57.436Z,20.91
2022-08-31T16:05:28.457Z,20.67
2022-08-31T16:07:55.781Z,20.48
2022-08-31T16:10:23.536Z,20.32
2022-08-31T16:12:52.122Z,20.28
2022-08-31T16:15:22.252Z,20.22
2022-08-31T16:17:51.397Z,20.11
2022-08-31T16:20:18.151Z,20.02
2022-08-31T16:22:45.569Z,19.98
2022-08-31T16:25:14.380Z,19.93
2022-08-31T16:27:41.744Z,19.83
2022-08-31T16:30:10.819Z,19.83
2022-08-31T16:32:37.628Z,19.80
2022-08-31T16:35:05.775Z,19.75
2022-08-31T16:37:33.570Z,19.66
2022-08-31T16:40:00.485Z,19.60
2022-08-31T16:42:27.338Z,19.60
2022-08-31T16:44:59.739Z,19.57
2022-08-31T16:47:29.293Z,19.52
2022-08-31T16:49:56.999Z,19.46
2022-08-31T16:52:26.832Z,19.40
2022-08-31T16:54:56.047Z,19.41
2022-08-31T16:57:29.124Z,19.33
2022-08-31T16:59:57.464Z,19.26
2022-08-31T17:02:25.153Z,19.19
2022-08-31T17:04:53.680Z,19.13
2022-08-31T17:07:23.252Z,19.09
2022-08-31T17:09:50.342Z,19.04
2022-08-31T17:12:21.855Z,19.00
2022-08-31T17:14:51.464Z,18.98
2022-08-31T17:17:23.548Z,18.92
2022-08-31T17:19:52.211Z,18.87
2022-08-31T17:22:27.071Z,18.84
2022-08-31T17:24:57.706Z,18.82
2022-08-31T17:27:25.961Z,18.71
2022-08-31T17:29:55.369Z,18.72
2022-08-31T17:32:25.039Z,18.60
2022-08-31T17:34:54.578Z,18.54
2022-08-31T17:37:25.246Z,18.51
2022-08-31T17:39:53.153Z,18.40
2022-08-31T17:42:21.293Z,18.43
2022-08-31T17:44:50.957Z,18.42
2022-08-31T17:47:19.151Z,18.59
2022-08-31T17:49:46.915Z,18.86
2022-08-31T17:52:14.145Z,18.75
2022-08-31T17:54:43.408Z,18.53
2022-08-31T17:57:14.005Z,18.26
2022-08-31T17:59:44.251Z,18.16
2022-08-31T18:02:13.951Z,18.05
2022-08-31T18:04:41.919Z,18.03
2022-08-31T18:07:09.516Z,17.96
2022-08-31T18:09:40.424Z,17.93
2022-08-31T18:12:08.306Z,17.89
2022-08-31T18:14:36.342Z,17.80
2022-08-31T18:17:04.769Z,17.67
2022-08-31T18:19:33.478Z,17.52
2022-08-31T18:22:01.262Z,17.48
2022-08-31T18:24:28.212Z,17.34
2022-08-31T18:26:58.932Z,17.31
2022-08-31T18:29:26.877Z,17.18
2022-08-31T18:31:57.754Z,17.23
2022-08-31T18:34:25.613Z,17.24
2022-08-31T18:36:53.586Z,17.19
2022-08-31T18:39:47.854Z,17.12
2022-08-31T18:42:28.211Z,17.10
2022-08-31T18:45:13.972Z,17.08
2022-08-31T18:47:40.746Z,16.97
2022-08-31T18:50:08.733Z,16.95
2022-08-31T18:52:39.509Z,16.87
2022-08-31T18:55:06.908Z,16.81
2022-08-31T18:57:33.932Z,16.79
2022-08-31T19:00:10.183Z,16.77
2022-08-31T19:02:43.228Z,16.77
2022-08-31T19:05:12.324Z,16.68
2022-08-31T19:07:41.401Z,16.71
2022-08-31T19:10:13.248Z,16.67
2022-08-31T19:12:42.877Z,16.60
2022-08-31T19:15:11.791Z,16.60
2022-08-31T19:17:41.841Z,16.59
2022-08-31T19:20:10.598Z,16.54
2022-08-31T19:22:38.101Z,16.48
2022-08-31T19:25:09.218Z,16.47
2022-08-31T19:27:36.852Z,16.44
2022-08-31T19:30:08.388Z,16.44
2022-08-31T19:32:36.936Z,16.42
2022-08-31T19:35:07.790Z,16.41
2022-08-31T19:37:37.070Z,16.36
2022-08-31T19:40:05.644Z,16.35
2022-08-31T19:45:23.593Z,16.32
2022-08-31T19:47:51.150Z,16.19
2022-08-31T19:50:18.071Z,16.12
2022-08-31T19:52:45.045Z,16.10
2022-08-31T19:55:13.234Z,16.05
2022-08-31T19:57:43.573Z,16.05
2022-08-31T20:00:11.938Z,16.10
2022-08-31T20:03:27.831Z,16.00
2022-08-31T20:06:25.659Z,15.88
2022-08-31T20:09:46.598Z,15.82
2022-08-31T20:13:01.590Z,15.74
2022-08-31T20:16:15.685Z,15.72
2022-08-31T20:18:51.671Z,15.67
2022-08-31T20:21:25.594Z,15.64
2022-08-31T20:24:05.423Z,15.64
2022-08-31T20:26:53.625Z,15.54
2022-08-31T20:29:46.250Z,15.50
2022-08-31T20:32:26.066Z,15.44
2022-08-31T20:35:15.827Z,15.33
2022-08-31T20:38:04.751Z,15.28
2022-08-31T20:41:09.754Z,15.28
2022-08-31T20:43:37.196Z,15.21
2022-08-31T20:49:27.420Z,15.10
2022-08-31T20:52:04.357Z,15.01
2022-08-31T20:54:32.552Z,14.98
2022-08-31T20:57:12.295Z,14.94
2022-08-31T20:59:39.323Z,14.94
2022-08-31T21:02:26.000Z,14.90
2022-08-31T21:05:40.333Z,14.83
2022-08-31T21:08:07.699Z,14.88
2022-08-31T21:10:37.578Z,14.85
2022-08-31T21:13:21.671Z,14.81
2022-08-31T21:15:55.432Z,14.78
2022-08-31T21:18:23.357Z,14.72
2022-08-31T21:21:15.957Z,14.66
2022-08-31T21:23:52.307Z,14.68
2022-08-31T21:26:22.814Z,14.71
2022-08-31T21:28:53.216Z,14.66
2022-08-31T21:31:30.611Z,14.62
2022-08-31T21:34:03.235Z,14.61
2022-08-31T21:36:33.891Z,14.60
2022-08-31T21:39:16.912Z,14.59
2022-08-31T21:41:52.937Z,14.57
2022-08-31T21:44:27.745Z,14.49
2022-08-31T21:46:57.808Z,14.52
2022-08-31T21:49:25.229Z,14.47
2022-08-31T21:51:56.910Z,14.42
2022-08-31T21:54:31.690Z,14.42
2022-08-31T21:59:51.900Z,14.46
2022-08-31T22:02:23.701Z,14.44
2022-08-31T22:04:51.080Z,14.35
2022-08-31T22:07:18.097Z,14.32
2022-08-31T22:09:57.601Z,14.31
2022-08-31T22:12:29.835Z,14.34
2022-08-31T22:15:13.779Z,14.35
2022-08-31T22:18:04.748Z,14.18
2022-08-31T22:20:45.736Z,14.24
2022-08-31T22:23:13.156Z,14.24
2022-08-31T22:25:44.430Z,14.21
2022-08-31T22:28:12.587Z,14.28
2022-08-31T22:31:00.997Z,14.30
2022-08-31T22:33:47.353Z,14.21
2022-08-31T22:36:42.727Z,14.22
2022-08-31T22:39:19.792Z,14.16
2022-08-31T22:41:51.486Z,14.21
2022-08-31T22:44:25.093Z,14.27
2022-08-31T22:47:07.749Z,14.23
2022-08-31T22:49:45.911Z,14.17
2022-08-31T22:52:17.805Z,14.05
2022-08-31T22:54:45.101Z,14.01
2022-08-31T22:57:30.125Z,13.96
2022-08-31T23:00:02.548Z,13.87
2022-08-31T23:02:41.331Z,13.85
2022-08-31T23:05:25.027Z,13.83
2022-08-31T23:08:25.726Z,13.89
2022-08-31T23:11:07.443Z,13.85
2022-08-31T23:13:55.728Z,13.84
2022-08-31T23:17:09.875Z,13.80
2022-08-31T23:19:47.162Z,13.80
2022-08-31T23:22:26.504Z,13.85
2022-08-31T23:25:09.330Z,13.85
2022-08-31T23:27:56.791Z,13.86
2022-08-31T23:30:38.630Z,13.78
2022-08-31T23:33:18.078Z,13.78
2022-08-31T23:35:48.036Z,13.75
2022-08-31T23:38:15.490Z,13.72
2022-08-31T23:40:59.607Z,13.76
2022-08-31T23:43:35.803Z,13.78
2022-08-31T23:46:19.410Z,13.73
2022-08-31T23:49:06.515Z,13.72
2022-08-31T23:51:36.666Z,13.76
2022-08-31T23:54:08.055Z,13.72
2022-08-31T23:57:03.525Z,13.71
2022-08-31T23:59:56.915Z,13.63
